Time;durP1;ratioP1;P1;durP2;ratioP2;P2;SDS_P1;SDS_P2;PMS_P1;PMS_P2;Temp;Humidity;BMP_temperature;BMP_pressure;BME280_temperature;BME280_humidity;BME280_pressure;Samples;Min_cycle;Max_cycle;Signal;HPM_P1;HPM_P2
2023/08/25 00:01:34;;;;;;;;;;;;;;;23.62;51.10;100872.22;4828095;29;124036;-74
2023/08/25 00:04:02;;;;;;;;;;;;;;;23.60;51.14;100863.44;4827544;29;124129;-75
2023/08/25 00:06:29;;;;;;;;;;;;;;;23.59;51.10;100872.56;4829143;29;119789;-75
2023/08/25 00:08:56;;;;;;;;;;;;;;;23.60;50.96;100866.13;4846241;29;118818;-75
2023/08/25 00:11:22;;;;;;;;;;;;;;;23.60;51.20;100868.84;4832358;29;123511;-75
2023/08/25 00:13:50;;;;;;;;;;;;;;;23.60;51.19;100874.25;4809066;29;124026;-75
2023/08/25 00:16:17;;;;;;;;;;;;;;;23.59;51.13;100873.41;4825261;29;120119;-75
2023/08/25 00:18:45;;;;;;;;;;;;;;;23.59;51.08;100873.41;4831796;29;118803;-75
2023/08/25 00:21:14;;;;;;;;;;;;;;;23.58;51.17;100866.28;4831812;29;124223;-74
2023/08/25 00:23:41;;;;;;;;;;;;;;;23.57;51.24;100863.75;4831446;29;123996;-75
2023/08/25 00:26:08;;;;;;;;;;;;;;;23.58;51.21;100870.84;4835166;29;119374;-75
2023/08/25 00:28:35;;;;;;;;;;;;;;;23.58;51.21;100865.44;4831152;29;117781;-75
2023/08/25 00:31:02;;;;;;;;;;;;;;;23.58;50.96;100865.44;4836951;29;125064;-74
2023/08/25 00:33:29;;;;;;;;;;;;;;;23.56;51.23;100872.84;4832380;29;122135;-75
2023/08/25 00:35:56;;;;;;;;;;;;;;;23.56;51.18;100878.25;4836204;29;119706;-75
2023/08/25 00:38:28;;;;;;;;;;;;;;;23.54;51.22;100881.09;4834259;29;118619;-75
2023/08/25 00:40:55;;;;;;;;;;;;;;;23.51;51.24;100876.88;4828623;29;124878;-75
2023/08/25 00:43:22;;;;;;;;;;;;;;;23.49;51.20;100884.28;4827729;29;125042;-75
2023/08/25 00:45:49;;;;;;;;;;;;;;;23.46;51.13;100878.34;4819012;29;119111;-75
2023/08/25 00:48:16;;;;;;;;;;;;;;;23.43;51.44;100879.50;4848795;29;119092;-75
2023/08/25 00:50:42;;;;;;;;;;;;;;;23.41;51.18;100886.88;4848413;29;124353;-75
2023/08/25 00:53:12;;;;;;;;;;;;;;;23.39;51.07;100888.88;4828918;29;124154;-75
2023/08/25 00:55:39;;;;;;;;;;;;;;;23.38;51.32;100892.59;4849806;28;119707;-75
2023/08/25 00:58:07;;;;;;;;;;;;;;;23.35;51.31;100886.66;4828381;29;119210;-75
2023/08/25 01:00:34;;;;;;;;;;;;;;;23.33;51.43;100889.50;4834439;29;124471;-75
2023/08/25 01:03:01;;;;;;;;;;;;;;;23.30;51.41;100889.78;4829860;29;123164;-76
2023/08/25 01:05:28;;;;;;;;;;;;;;;23.28;51.32;100886.38;4832139;29;119203;-75
2023/08/25 01:07:57;;;;;;;;;;;;;;;23.24;51.42;100877.72;4828911;29;119107;-75
2023/08/25 01:10:41;;;;;;;;;;;;;;;23.23;51.56;100877.91;4841498;29;124037;-75
2023/08/25 01:13:10;;;;;;;;;;;;;;;23.19;51.57;100865.69;4832640;29;124869;-75
2023/08/25 01:15:41;;;;;;;;;;;;;;;23.17;51.59;100862.28;4827353;29;117479;-75
2023/08/25 01:18:31;;;;;;;;;;;;;;;23.17;51.35;100862.28;4850520;28;118403;-75
2023/08/25 01:20:59;;;;;;;;;;;;;;;23.17;51.59;100862.28;4826808;29;124700;-75
2023/08/25 01:23:37;;;;;;;;;;;;;;;23.15;51.46;100848.06;4849641;28;123726;-75
2023/08/25 01:26:05;;;;;;;;;;;;;;;23.13;51.36;100851.78;4827034;29;119970;-75
2023/08/25 01:28:31;;;;;;;;;;;;;;;23.11;51.58;100859.19;4833829;29;118892;-75
2023/08/25 01:31:01;;;;;;;;;;;;;;;23.11;51.59;100853.78;4833387;29;124305;-75
2023/08/25 01:33:30;;;;;;;;;;;;;;;23.08;51.59;100848.69;4834993;29;124424;-75
2023/08/25 01:36:13;;;;;;;;;;;;;;;23.06;51.73;100845.28;4848335;28;119638;-75
2023/08/25 01:39:12;;;;;;;;;;;;;;;23.05;51.53;100854.38;4816615;29;118992;-75
2023/08/25 01:41:46;;;;;;;;;;;;;;;23.02;51.55;100849.25;4809314;29;124318;-75
2023/08/25 01:44:14;;;;;;;;;;;;;;;23.00;51.58;100845.84;4847486;29;124598;-75
2023/08/25 01:46:43;;;;;;;;;;;;;;;22.96;51.75;100849.84;4828044;29;119789;-75
2023/08/25 01:49:13;;;;;;;;;;;;;;;22.94;51.60;100841.03;4834834;29;119835;-75
2023/08/25 01:51:40;;;;;;;;;;;;;;;22.91;51.70;100846.75;4845811;29;124256;-75
2023/08/25 01:54:07;;;;;;;;;;;;;;;22.88;51.75;100844.34;4833544;29;123002;-75
2023/08/25 01:56:35;;;;;;;;;;;;;;;22.86;51.70;100838.25;4847717;29;120137;-75
2023/08/25 01:59:02;;;;;;;;;;;;;;;22.85;51.69;100841.94;4818023;29;118007;-75
2023/08/25 02:01:30;;;;;;;;;;;;;;;22.83;51.78;100843.94;4845048;29;123185;-75
2023/08/25 02:03:58;;;;;;;;;;;;;;;22.81;51.82;100840.53;4833694;29;123367;-75
2023/08/25 02:06:25;;;;;;;;;;;;;;;22.82;51.87;100842.25;4832593;29;119693;-75
2023/08/25 02:08:53;;;;;;;;;;;;;;;22.81;51.90;100845.94;4827072;29;119734;-75
2023/08/25 02:11:20;;;;;;;;;;;;;;;22.81;52.07;100843.22;4832890;29;124402;-75
2023/08/25 02:13:47;;;;;;;;;;;;;;;22.80;51.88;100844.25;4821484;29;123341;-75
2023/08/25 02:16:14;;;;;;;;;;;;;;;22.80;51.94;100839.69;4831409;29;119702;-75
2023/08/25 02:18:41;;;;;;;;;;;;;;;22.82;51.86;100836.84;4834439;29;119057;-75
2023/08/25 02:21:08;;;;;;;;;;;;;;;22.82;51.89;100831.44;4830389;29;123603;-75
2023/08/25 02:23:35;;;;;;;;;;;;;;;22.83;52.00;100825.03;4833410;29;123426;-75
2023/08/25 02:26:03;;;;;;;;;;;;;;;22.83;51.99;100822.31;4827725;29;118748;-75
2023/08/25 02:28:30;;;;;;;;;;;;;;;22.83;52.06;100822.31;4831301;29;117984;-75
2023/08/25 02:30:58;;;;;;;;;;;;;;;22.83;51.98;100822.31;4846287;29;123932;-75
2023/08/25 02:33:26;;;;;;;;;;;;;;;22.85;52.12;100815.78;4832627;29;124185;-75
2023/08/25 02:35:53;;;;;;;;;;;;;;;22.85;52.12;100814.91;4831215;29;119962;-75
2023/08/25 02:38:20;;;;;;;;;;;;;;;22.87;52.10;100807.56;4823020;29;119925;-75
2023/08/25 02:40:47;;;;;;;;;;;;;;;22.90;52.13;100799.13;4848302;29;123394;-75
2023/08/25 02:43:15;;;;;;;;;;;;;;;22.92;52.20;100805.22;4829999;29;123260;-75
2023/08/25 02:45:43;;;;;;;;;;;;;;;22.93;52.10;100801.53;4846639;28;119842;-75
2023/08/25 02:48:10;;;;;;;;;;;;;;;22.94;52.10;100798.69;4827232;29;118850;-75
2023/08/25 02:50:38;;;;;;;;;;;;;;;22.95;52.17;100799.53;4832629;29;125415;-75
2023/08/25 02:53:05;;;;;;;;;;;;;;;22.97;52.18;100800.22;4825591;29;122762;-75
2023/08/25 02:55:34;;;;;;;;;;;;;;;22.98;52.22;100799.25;4833804;29;120467;-75
2023/08/25 02:58:01;;;;;;;;;;;;;;;22.98;52.15;100793.84;4831031;29;117530;-75
2023/08/25 03:00:28;;;;;;;;;;;;;;;22.97;52.23;100786.72;4829132;29;124389;-75
2023/08/25 03:02:55;;;;;;;;;;;;;;;22.97;52.16;100786.72;4847068;29;123123;-75
2023/08/25 03:05:23;;;;;;;;;;;;;;;22.96;52.18;100774.19;4831879;29;119099;-75
2023/08/25 03:07:53;;;;;;;;;;;;;;;22.97;52.27;100775.91;4833335;29;118342;-75
2023/08/25 03:10:21;;;;;;;;;;;;;;;22.98;52.23;100772.22;4831639;29;123610;-75
2023/08/25 03:12:49;;;;;;;;;;;;;;;22.98;52.34;100768.66;4847299;29;123562;-75
2023/08/25 03:15:16;;;;;;;;;;;;;;;22.99;52.40;100768.50;4830604;29;118766;-75
2023/08/25 03:17:43;;;;;;;;;;;;;;;23.00;52.28;100762.13;4845549;29;117859;-75
2023/08/25 03:20:10;;;;;;;;;;;;;;;23.03;52.36;100759.13;4833348;29;123851;-74
2023/08/25 03:22:37;;;;;;;;;;;;;;;23.04;52.30;100755.44;4825921;29;123791;-75
2023/08/25 03:25:04;;;;;;;;;;;;;;;23.05;52.67;100762.53;4831900;29;120684;-75
2023/08/25 03:27:34;;;;;;;;;;;;;;;23.07;52.22;100760.50;4831691;29;118797;-75
2023/08/25 03:30:01;;;;;;;;;;;;;;;23.07;52.44;100755.09;4830226;29;124390;-75
2023/08/25 03:32:29;;;;;;;;;;;;;;;23.10;52.47;100752.13;4830956;29;123897;-75
2023/08/25 03:34:56;;;;;;;;;;;;;;;23.11;52.50;100756.53;4832172;29;118243;-75
2023/08/25 03:37:24;;;;;;;;;;;;;;;23.12;52.62;100747.41;4827791;29;118572;-75
2023/08/25 03:39:52;;;;;;;;;;;;;;;23.15;52.35;100745.41;4828004;29;123460;-75
2023/08/25 03:42:19;;;;;;;;;;;;;;;23.17;52.47;100735.28;4816254;29;124821;-75
2023/08/25 03:44:48;;;;;;;;;;;;;;;23.18;52.37;100728.88;4828943;29;120415;-74
2023/08/25 03:47:15;;;;;;;;;;;;;;;23.16;52.52;100726.34;4831506;29;117773;-75
2023/08/25 03:49:41;;;;;;;;;;;;;;;23.17;52.61;100732.56;4847123;28;123736;-75
2023/08/25 03:52:09;;;;;;;;;;;;;;;23.16;52.47;100733.59;4823119;29;123371;-75
2023/08/25 03:54:36;;;;;;;;;;;;;;;23.15;52.45;100734.59;4830217;29;119682;-75
2023/08/25 03:57:08;;;;;;;;;;;;;;;23.14;52.57;100739.16;4821643;29;117666;-75
2023/08/25 03:59:35;;;;;;;;;;;;;;;23.12;52.61;100731.19;4831141;29;122750;-75
2023/08/25 04:02:03;;;;;;;;;;;;;;;23.11;52.49;100740.31;4831105;29;122049;-75
2023/08/25 04:04:34;;;;;;;;;;;;;;;23.10;52.53;100733.19;4833093;29;118763;-75
2023/08/25 04:07:00;;;;;;;;;;;;;;;23.11;52.59;100734.03;4832412;29;118720;-75
2023/08/25 04:09:27;;;;;;;;;;;;;;;23.12;52.62;100735.75;4846097;29;124349;-75
2023/08/25 04:11:57;;;;;;;;;;;;;;;23.13;52.64;100732.91;4827651;29;123542;-75
2023/08/25 04:14:24;;;;;;;;;;;;;;;23.15;52.71;100729.19;4845008;29;121180;-75
2023/08/25 04:16:51;;;;;;;;;;;;;;;23.12;52.47;100725.78;4845413;29;118759;-75
2023/08/25 04:19:21;;;;;;;;;;;;;;;23.09;52.58;100734.22;4830557;29;123289;-75
2023/08/25 04:21:48;;;;;;;;;;;;;;;23.08;52.72;100735.22;4831542;29;123962;-74
2023/08/25 04:24:19;;;;;;;;;;;;;;;23.07;52.74;100733.50;4831866;29;119149;-75
2023/08/25 04:26:46;;;;;;;;;;;;;;;23.07;52.90;100721.84;4830850;29;117934;-75
2023/08/25 04:29:13;;;;;;;;;;;;;;;23.07;52.94;100720.00;4844923;29;123522;-75
2023/08/25 04:31:40;;;;;;;;;;;;;;;23.06;53.05;100715.59;4845793;29;125049;-75
2023/08/25 04:34:11;;;;;;;;;;;;;;;23.07;52.94;100711.88;4829025;29;121879;-75
2023/08/25 04:36:39;;;;;;;;;;;;;;;23.05;53.01;100713.91;4830310;29;119988;-75
2023/08/25 04:39:07;;;;;;;;;;;;;;;23.06;53.05;100721.00;4830550;29;123942;-75
2023/08/25 04:41:36;;;;;;;;;;;;;;;23.05;53.08;100719.31;4844730;29;127098;-75
2023/08/25 04:44:03;;;;;;;;;;;;;;;23.06;53.04;100715.59;4830672;29;120329;-75
2023/08/25 04:46:31;;;;;;;;;;;;;;;23.05;53.01;100730.09;4829131;29;119831;-75
2023/08/25 04:48:59;;;;;;;;;;;;;;;23.03;53.04;100726.72;4828330;29;121758;-75
2023/08/25 04:51:27;;;;;;;;;;;;;;;23.02;53.10;100725.00;4826824;29;124520;-75
2023/08/25 04:53:54;;;;;;;;;;;;;;;23.01;53.13;100717.88;4842964;29;118953;-75
2023/08/25 04:56:21;;;;;;;;;;;;;;;22.98;53.08;100723.59;4814271;29;117208;-75
2023/08/25 04:58:48;;;;;;;;;;;;;;;22.97;53.17;100711.09;4829111;29;123574;-75
2023/08/25 05:01:15;;;;;;;;;;;;;;;22.97;53.26;100716.50;4832769;29;123858;-75
2023/08/25 05:03:44;;;;;;;;;;;;;;;22.96;53.06;100720.19;4844785;29;119918;-75
2023/08/25 05:06:13;;;;;;;;;;;;;;;22.94;53.14;100714.09;4820550;29;120779;-75
2023/08/25 05:08:41;;;;;;;;;;;;;;;22.90;53.13;100716.25;4842618;29;124850;-75
2023/08/25 05:11:09;;;;;;;;;;;;;;;22.88;53.26;100717.41;4831797;29;124364;-74
2023/08/25 05:13:37;;;;;;;;;;;;;;;22.86;53.29;100719.41;4832950;29;120398;-75
2023/08/25 05:16:07;;;;;;;;;;;;;;;22.85;53.30;100704.19;4836721;29;118057;-75
2023/08/25 05:18:56;;;;;;;;;;;;;;;22.86;53.37;100697.81;4850188;28;123962;-75
2023/08/25 05:21:23;;;;;;;;;;;;;;;22.84;53.49;100705.22;4847815;29;124069;-75
2023/08/25 05:24:11;;;;;;;;;;;;;;;22.83;53.41;100703.50;4834451;29;118851;-75
2023/08/25 05:26:38;;;;;;;;;;;;;;;22.81;53.51;100705.50;4832879;29;117942;-75
2023/08/25 05:29:05;;;;;;;;;;;;;;;22.81;53.48;100700.09;4834890;29;123587;-75
2023/08/25 05:31:32;;;;;;;;;;;;;;;22.83;53.60;100692.69;4844360;28;123323;-74
2023/08/25 05:34:16;;;;;;;;;;;;;;;22.86;53.65;100692.41;4832904;29;119214;-74
2023/08/25 05:36:50;;;;;;;;;;;;;;;22.89;53.61;100692.09;4818205;29;118463;-74
2023/08/25 05:39:20;;;;;;;;;;;;;;;22.93;53.76;100682.69;4833156;29;123542;-74
2023/08/25 05:41:48;;;;;;;;;;;;;;;22.93;53.75;100672.72;4834183;29;124606;-74
2023/08/25 05:44:15;;;;;;;;;;;;;;;22.96;53.71;100693.16;4848778;29;118887;-74
2023/08/25 05:46:43;;;;;;;;;;;;;;;22.98;53.73;100685.78;4832526;29;118105;-74
2023/08/25 05:49:11;;;;;;;;;;;;;;;23.01;53.68;100680.06;4832227;29;124834;-74
2023/08/25 05:51:38;;;;;;;;;;;;;;;23.06;53.76;100677.78;4835284;29;124800;-75
2023/08/25 05:54:05;;;;;;;;;;;;;;;23.11;53.86;100686.28;4833414;29;120968;-75
2023/08/25 05:56:32;;;;;;;;;;;;;;;23.17;53.93;100678.53;4825233;29;121443;-75
2023/08/25 05:59:00;;;;;;;;;;;;;;;23.21;53.86;100685.34;4833475;29;124096;-75
2023/08/25 06:01:27;;;;;;;;;;;;;;;23.24;53.94;100685.03;4834435;29;124199;-75
2023/08/25 06:03:55;;;;;;;;;;;;;;;23.27;53.88;100679.31;4832680;29;119118;-75
2023/08/25 06:06:22;;;;;;;;;;;;;;;23.31;53.89;100664.50;4832913;29;119538;-75
2023/08/25 06:08:49;;;;;;;;;;;;;;;23.36;53.95;100670.28;4832267;29;123918;-78
2023/08/25 06:11:16;;;;;;;;;;;;;;;23.40;53.89;100674.38;4833196;29;123993;-75
2023/08/25 06:13:43;;;;;;;;;;;;;;;23.42;53.89;100688.56;4830214;29;120207;-75
2023/08/25 06:16:10;;;;;;;;;;;;;;;23.47;53.82;100691.66;4842779;29;118889;-76
2023/08/25 06:18:37;;;;;;;;;;;;;;;23.47;53.81;100680.84;4832147;29;124233;-76
2023/08/25 06:21:04;;;;;;;;;;;;;;;23.47;53.80;100696.19;4829239;29;124734;-77
2023/08/25 06:23:31;;;;;;;;;;;;;;;23.50;54.06;100694.03;4830663;29;119397;-76
2023/08/25 06:25:59;;;;;;;;;;;;;;;23.52;53.96;100694.72;4846079;29;119015;-76
2023/08/25 06:28:26;;;;;;;;;;;;;;;23.51;53.90;100700.31;4831265;29;125146;-76
2023/08/25 06:30:53;;;;;;;;;;;;;;;23.48;53.78;100698.75;4828789;29;124619;-76
2023/08/25 06:33:20;;;;;;;;;;;;;;;23.46;54.02;100706.16;4845562;29;118673;-76
2023/08/25 06:35:46;;;;;;;;;;;;;;;23.46;53.98;100722.38;4835426;29;118287;-77
2023/08/25 06:38:14;;;;;;;;;;;;;;;23.47;54.00;100717.81;4835833;29;123100;-77
2023/08/25 06:40:41;;;;;;;;;;;;;;;23.47;54.01;100707.88;4830646;29;124111;-77
2023/08/25 06:43:09;;;;;;;;;;;;;;;23.49;54.09;100708.56;4832564;29;119929;-77
2023/08/25 06:45:37;;;;;;;;;;;;;;;23.51;53.92;100714.66;4832666;29;120073;-77
2023/08/25 06:48:05;;;;;;;;;;;;;;;23.55;54.06;100706.25;4833941;29;124477;-77
2023/08/25 06:50:32;;;;;;;;;;;;;;;23.58;53.93;100703.22;4841309;29;124639;-77
2023/08/25 06:52:59;;;;;;;;;;;;;;;23.58;53.91;100693.22;4832535;29;120669;-77
2023/08/25 06:55:27;;;;;;;;;;;;;;;23.58;53.99;100681.59;4845166;29;118557;-77
2023/08/25 06:57:53;;;;;;;;;;;;;;;23.59;54.07;100691.41;4825310;29;125307;-74
2023/08/25 07:00:22;;;;;;;;;;;;;;;23.58;54.08;100692.41;4824609;29;123616;-74
2023/08/25 07:02:49;;;;;;;;;;;;;;;23.58;53.85;100714.03;4828806;29;119468;-77
2023/08/25 07:05:16;;;;;;;;;;;;;;;23.57;54.07;100712.34;4823169;29;118225;-77
2023/08/25 07:07:43;;;;;;;;;;;;;;;23.52;53.91;100699.28;4832912;29;124462;-77
2023/08/25 07:10:13;;;;;;;;;;;;;;;23.49;54.07;100675.28;4831284;29;123361;-77
2023/08/25 07:12:40;;;;;;;;;;;;;;;23.45;54.14;100653.13;4838855;29;119165;-77
2023/08/25 07:15:07;;;;;;;;;;;;;;;23.43;54.13;100663.25;4844002;29;119017;-77
2023/08/25 07:17:34;;;;;;;;;;;;;;;23.41;54.18;100651.72;4842795;29;123945;-77
2023/08/25 07:20:04;;;;;;;;;;;;;;;23.40;54.09;100652.75;4839067;29;124646;-77
2023/08/25 07:22:31;;;;;;;;;;;;;;;23.39;53.97;100651.03;4832810;29;121909;-77
2023/08/25 07:24:58;;;;;;;;;;;;;;;23.37;54.08;100634.13;4846348;29;120087;-77
2023/08/25 07:27:25;;;;;;;;;;;;;;;23.37;54.12;100631.41;4836639;29;125400;-77
2023/08/25 07:29:53;;;;;;;;;;;;;;;23.35;54.02;100630.72;4837477;29;124683;-76
2023/08/25 07:32:20;;;;;;;;;;;;;;;23.34;54.21;100634.47;4849265;29;120155;-77
2023/08/25 07:34:48;;;;;;;;;;;;;;;23.34;54.32;100631.75;4847465;29;117965;-77
2023/08/25 07:37:15;;;;;;;;;;;;;;;23.34;54.29;100626.34;4843742;29;123903;-77
2023/08/25 07:39:41;;;;;;;;;;;;;;;23.35;54.26;100632.59;4827253;29;124134;-77
2023/08/25 07:42:08;;;;;;;;;;;;;;;23.35;54.29;100630.72;4835217;29;118339;-77
2023/08/25 07:44:36;;;;;;;;;;;;;;;23.37;54.40;100636.81;4826967;29;119848;-77
2023/08/25 07:47:04;;;;;;;;;;;;;;;23.39;54.49;100642.91;4833417;29;123499;-77
2023/08/25 07:49:32;;;;;;;;;;;;;;;23.42;54.45;100639.91;4817458;29;121996;-77
2023/08/25 07:51:59;;;;;;;;;;;;;;;23.44;54.29;100648.72;4832554;29;119193;-77
2023/08/25 07:54:27;;;;;;;;;;;;;;;23.45;54.26;100655.81;4835508;29;119093;-77
2023/08/25 07:56:54;;;;;;;;;;;;;;;23.48;54.51;100682.53;4825144;29;124595;-77
2023/08/25 07:59:21;;;;;;;;;;;;;;;23.49;54.44;100722.09;4829706;29;124390;-77
2023/08/25 08:01:50;;;;;;;;;;;;;;;23.48;54.49;100736.59;4831671;29;119691;-77
2023/08/25 08:04:17;;;;;;;;;;;;;;;23.46;54.50;100748.56;4832018;29;118876;-77
2023/08/25 08:06:44;;;;;;;;;;;;;;;23.45;54.44;100772.06;4825717;29;123419;-77
2023/08/25 08:09:11;;;;;;;;;;;;;;;23.42;54.49;100775.06;4830584;29;124998;-77
2023/08/25 08:11:39;;;;;;;;;;;;;;;23.40;54.44;100754.59;4827075;29;119663;-76
2023/08/25 08:14:06;;;;;;;;;;;;;;;23.34;54.25;100718.25;4829906;29;118550;-77
2023/08/25 08:16:33;;;;;;;;;;;;;;;23.32;54.66;100714.84;4825850;29;125202;-76
2023/08/25 08:19:05;;;;;;;;;;;;;;;23.30;54.62;100720.41;4827928;29;124943;-77
2023/08/25 08:21:32;;;;;;;;;;;;;;;23.28;54.82;100722.41;4823904;29;120470;-77
2023/08/25 08:24:00;;;;;;;;;;;;;;;23.29;54.60;100720.56;4832011;29;119602;-77
2023/08/25 08:26:29;;;;;;;;;;;;;;;23.28;54.69;100708.03;4844057;28;123208;-77
2023/08/25 08:28:56;;;;;;;;;;;;;;;23.26;54.85;100700.09;4826030;29;124943;-77
2023/08/25 08:31:23;;;;;;;;;;;;;;;23.23;54.78;100718.47;4815841;29;117454;-77
2023/08/25 08:33:50;;;;;;;;;;;;;;;23.23;54.91;100729.28;4833063;29;118816;-77
2023/08/25 08:36:17;;;;;;;;;;;;;;;23.24;54.91;100728.25;4827178;29;124396;-77
2023/08/25 08:38:44;;;;;;;;;;;;;;;23.27;55.02;100717.16;4838758;29;124092;-77
2023/08/25 08:41:14;;;;;;;;;;;;;;;23.30;54.82;100716.81;4815432;29;119663;-77
2023/08/25 08:43:44;;;;;;;;;;;;;;;23.33;54.85;100716.53;4841462;29;118860;-77
2023/08/25 08:46:14;;;;;;;;;;;;;;;23.34;54.86;100718.25;4846552;29;124318;-77
2023/08/25 08:48:42;;;;;;;;;;;;;;;23.35;54.89;100730.72;4835281;29;124093;-77
2023/08/25 08:51:10;;;;;;;;;;;;;;;23.35;54.82;100730.72;4829612;29;119142;-77
2023/08/25 08:53:38;;;;;;;;;;;;;;;23.34;54.89;100712.84;4826072;29;118966;-77
2023/08/25 08:56:05;;;;;;;;;;;;;;;23.35;54.74;100717.22;4832277;29;124297;-77
2023/08/25 08:58:32;;;;;;;;;;;;;;;23.36;54.97;100716.22;4833759;29;124211;-76
2023/08/25 09:00:59;;;;;;;;;;;;;;;23.38;55.01;100719.63;4830988;29;119837;-77
2023/08/25 09:03:31;;;;;;;;;;;;;;;23.38;54.93;100725.03;4833429;29;117307;-77
2023/08/25 09:05:59;;;;;;;;;;;;;;;23.41;54.91;100722.00;4831063;29;125044;-77
2023/08/25 09:08:26;;;;;;;;;;;;;;;23.39;54.89;100721.31;4826299;29;124222;-77
2023/08/25 09:10:54;;;;;;;;;;;;;;;23.38;54.88;100727.72;4830755;29;120565;-77
2023/08/25 09:13:21;;;;;;;;;;;;;;;23.37;54.82;100715.22;4833028;29;120129;-78
2023/08/25 09:15:51;;;;;;;;;;;;;;;23.33;54.93;100740.84;4824541;29;124115;-77
2023/08/25 09:18:18;;;;;;;;;;;;;;;23.32;54.97;100741.88;4832217;29;123822;-77
2023/08/25 09:20:45;;;;;;;;;;;;;;;23.30;54.85;100741.16;4825852;29;119796;-77
2023/08/25 09:23:12;;;;;;;;;;;;;;;23.30;55.08;100730.34;4832064;29;121313;-78
2023/08/25 09:25:40;;;;;;;;;;;;;;;23.29;54.89;100715.97;4832725;29;124133;-77
2023/08/25 09:28:07;;;;;;;;;;;;;;;23.29;55.00;100701.63;4834538;29;126562;-77
2023/08/25 09:30:35;;;;;;;;;;;;;;;23.30;55.10;100703.31;4835400;29;120543;-77
2023/08/25 09:33:06;;;;;;;;;;;;;;;23.32;54.97;100704.03;4828007;29;118159;-77
2023/08/25 09:35:33;;;;;;;;;;;;;;;23.34;55.00;100696.63;4829449;29;125945;-77
2023/08/25 09:38:00;;;;;;;;;;;;;;;23.36;55.12;100694.59;4833517;29;124275;-77
2023/08/25 09:40:28;;;;;;;;;;;;;;;23.36;55.12;100705.41;4829156;29;118969;-77
2023/08/25 09:42:59;;;;;;;;;;;;;;;23.37;55.12;100701.69;4830509;29;118915;-77
2023/08/25 09:45:30;;;;;;;;;;;;;;;23.38;55.11;100676.38;4831618;29;124280;-77
2023/08/25 09:48:10;;;;;;;;;;;;;;;23.39;55.20;100651.03;4830751;29;124074;-77
2023/08/25 09:50:38;;;;;;;;;;;;;;;23.41;55.03;100658.97;4830796;29;119129;-77
2023/08/25 09:53:06;;;;;;;;;;;;;;;23.41;55.26;100649.00;4833585;29;119712;-77
2023/08/25 09:55:39;;;;;;;;;;;;;;;23.43;55.21;100657.84;4846199;28;124850;-76
2023/08/25 09:58:07;;;;;;;;;;;;;;;23.47;55.22;100664.63;4827275;29;124551;-77
2023/08/25 10:00:35;;;;;;;;;;;;;;;23.49;55.26;100653.66;4829781;29;120361;-77
2023/08/25 10:03:08;;;;;;;;;;;;;;;23.52;55.28;100656.03;4848770;29;120657;-77
2023/08/25 10:05:37;;;;;;;;;;;;;;;23.56;55.37;100683.59;4823065;29;124991;-77
2023/08/25 10:08:07;;;;;;;;;;;;;;;23.61;55.41;100697.50;4827792;29;124331;-77
2023/08/25 10:10:35;;;;;;;;;;;;;;;23.65;55.32;100693.47;4826185;29;119900;-77
2023/08/25 10:13:03;;;;;;;;;;;;;;;23.67;55.31;100691.44;4817935;29;118046;-77
2023/08/25 10:15:31;;;;;;;;;;;;;;;23.71;55.10;100692.81;4824177;29;126124;-77
2023/08/25 10:18:00;;;;;;;;;;;;;;;23.74;55.17;100697.94;4829686;29;125004;-78
2023/08/25 10:20:28;;;;;;;;;;;;;;;23.75;55.27;100710.44;4832459;29;120301;-78
2023/08/25 10:22:56;;;;;;;;;;;;;;;23.77;55.05;100713.84;4834391;29;119114;-78
2023/08/25 10:25:27;;;;;;;;;;;;;;;23.77;55.18;100719.25;4819412;29;124305;-79
2023/08/25 10:27:54;;;;;;;;;;;;;;;23.75;55.03;100713.13;4838553;29;123389;-78
2023/08/25 10:30:22;;;;;;;;;;;;;;;23.75;55.10;100715.84;4819390;29;120650;-78
2023/08/25 10:32:50;;;;;;;;;;;;;;;23.75;55.31;100710.44;4832969;29;118413;-78
2023/08/25 10:35:36;;;;;;;;;;;;;;;23.73;55.23;100707.03;4822133;29;125321;-78
2023/08/25 10:38:03;;;;;;;;;;;;;;;23.72;55.28;100710.75;4850147;28;123433;-79
2023/08/25 10:40:41;;;;;;;;;;;;;;;23.72;55.36;100710.75;4834427;29;119601;-78
2023/08/25 10:43:08;;;;;;;;;;;;;;;23.71;55.35;100711.75;4813257;29;117961;-79
2023/08/25 10:45:35;;;;;;;;;;;;;;;23.71;55.14;100715.34;4832922;29;124120;-78
2023/08/25 10:48:03;;;;;;;;;;;;;;;23.74;55.48;100719.56;4827721;29;125533;-79
2023/08/25 10:50:30;;;;;;;;;;;;;;;23.77;55.27;100724.66;4836429;28;119529;-78
2023/08/25 10:52:57;;;;;;;;;;;;;;;23.78;55.49;100715.53;4834173;29;120046;-78
2023/08/25 10:55:32;;;;;;;;;;;;;;;23.78;55.24;100720.09;4832190;29;126379;-78
2023/08/25 10:58:06;;;;;;;;;;;;;;;23.81;55.27;100720.66;4825822;29;124120;-78
2023/08/25 11:00:34;;;;;;;;;;;;;;;23.82;55.48;100733.16;4845019;29;119708;-78
2023/08/25 11:03:03;;;;;;;;;;;;;;;23.84;55.27;100731.16;4829273;29;119260;-78
2023/08/25 11:05:44;;;;;;;;;;;;;;;23.85;55.34;100726.63;4830285;29;124311;-78
2023/08/25 11:08:24;;;;;;;;;;;;;;;23.85;55.43;100724.75;4833788;29;124927;-78
2023/08/25 11:11:11;;;;;;;;;;;;;;;23.84;55.41;100724.91;4825753;28;119405;-78
2023/08/25 11:13:39;;;;;;;;;;;;;;;23.81;55.21;100736.91;4846611;29;118582;-78
2023/08/25 11:16:07;;;;;;;;;;;;;;;23.77;55.40;100743.59;4838882;29;125089;-78
2023/08/25 11:18:34;;;;;;;;;;;;;;;23.74;55.22;100735.78;4831594;29;123546;-78
2023/08/25 11:21:01;;;;;;;;;;;;;;;23.73;55.47;100734.06;4834801;29;119305;-78
2023/08/25 11:23:56;;;;;;;;;;;;;;;23.70;55.41;100735.25;4827903;29;118387;-78
2023/08/25 11:26:23;;;;;;;;;;;;;;;23.69;55.54;100724.59;4833632;29;123507;-78
2023/08/25 11:28:51;;;;;;;;;;;;;;;23.68;55.58;100720.19;4835585;29;124371;-78
2023/08/25 11:31:21;;;;;;;;;;;;;;;23.68;55.62;100714.78;4834649;29;121733;-79
2023/08/25 11:33:50;;;;;;;;;;;;;;;23.69;55.49;100711.06;4834845;29;118603;-78
2023/08/25 11:36:17;;;;;;;;;;;;;;;23.71;55.67;100698.22;4831268;29;124706;-79
2023/08/25 11:38:49;;;;;;;;;;;;;;;23.76;55.75;100674.28;4841710;29;124471;-78
2023/08/25 11:41:16;;;;;;;;;;;;;;;23.82;55.67;100676.38;4833414;29;121524;-79
2023/08/25 11:43:47;;;;;;;;;;;;;;;23.93;55.90;100685.25;4829134;29;120096;-76
2023/08/25 11:46:15;;;;;;;;;;;;;;;24.04;55.87;100682.25;4824868;29;125876;-81
2023/08/25 11:48:42;;;;;;;;;;;;;;;24.16;55.99;100701.75;4828162;29;124844;-81
2023/08/25 11:51:16;;;;;;;;;;;;;;;24.26;55.85;100692.50;4829935;29;120554;-80
2023/08/25 11:53:46;;;;;;;;;;;;;;;24.36;56.17;100691.53;4832625;29;118329;-81
2023/08/25 11:56:16;;;;;;;;;;;;;;;24.43;56.06;100706.09;4830222;29;124025;-79
2023/08/25 11:58:46;;;;;;;;;;;;;;;24.47;55.81;100721.03;4830178;29;123952;-79
2023/08/25 12:01:13;;;;;;;;;;;;;;;24.47;55.68;100721.03;4833026;29;119468;-80
2023/08/25 12:03:43;;;;;;;;;;;;;;;24.48;55.69;100728.13;4848267;29;119307;-79
2023/08/25 12:06:11;;;;;;;;;;;;;;;24.48;55.74;100728.13;4821588;29;124136;-76
2023/08/25 12:08:44;;;;;;;;;;;;;;;24.48;55.73;100722.72;4827520;29;124087;-79
2023/08/25 12:11:11;;;;;;;;;;;;;;;24.49;55.63;100719.00;4829288;29;119639;-79
2023/08/25 12:13:43;;;;;;;;;;;;;;;24.51;55.64;100722.41;4824880;29;118672;-79
2023/08/25 12:16:13;;;;;;;;;;;;;;;24.50;55.70;100709.84;4829175;29;124045;-79
2023/08/25 12:18:42;;;;;;;;;;;;;;;24.51;55.70;100705.31;4822975;29;124286;-79
2023/08/25 12:21:10;;;;;;;;;;;;;;;24.51;55.66;100716.97;4832927;29;119430;-79
2023/08/25 12:23:40;;;;;;;;;;;;;;;24.51;55.44;100722.41;4831237;29;118252;-79
2023/08/25 12:26:08;;;;;;;;;;;;;;;24.50;55.74;100720.69;4831957;29;125159;-79
2023/08/25 12:28:35;;;;;;;;;;;;;;;24.49;55.61;100697.34;4830808;29;124159;-79
2023/08/25 12:31:03;;;;;;;;;;;;;;;24.48;55.47;100657.72;4834955;29;120474;-79
2023/08/25 12:33:31;;;;;;;;;;;;;;;24.48;55.62;100660.44;4846271;29;119970;-79
2023/08/25 12:35:58;;;;;;;;;;;;;;;24.47;55.70;100691.25;4835449;29;122356;-79